createdAt,value
2022-08-12T00:02:46.000Z,65.90
2022-08-12T00:05:35.201Z,66.50
2022-08-12T00:08:28.563Z,66.90
2022-08-12T00:14:06.684Z,66.70
2022-08-12T00:16:52.132Z,64.80
2022-08-12T00:19:37.452Z,64.80
2022-08-12T00:22:22.983Z,64.30
2022-08-12T00:25:08.266Z,64.90
2022-08-12T00:27:53.845Z,66.60
2022-08-12T00:30:39.357Z,66.40
2022-08-12T00:36:36.111Z,66.70
2022-08-12T00:39:22.752Z,67.40
2022-08-12T00:42:10.326Z,66.50
2022-08-12T00:44:44.106Z,68.20
2022-08-12T00:47:24.807Z,66.70
2022-08-12T00:49:54.418Z,66.10
2022-08-12T00:52:21.731Z,66.60
2022-08-12T00:54:57.863Z,67.20
2022-08-12T00:57:30.097Z,68.00
2022-08-12T01:00:10.777Z,67.80
2022-08-12T01:02:40.496Z,66.80
2022-08-12T01:05:30.845Z,68.10
2022-08-12T01:08:16.301Z,68.10
2022-08-12T01:11:04.184Z,68.50
2022-08-12T01:13:34.108Z,68.40
2022-08-12T01:16:04.616Z,67.90
2022-08-12T01:18:34.171Z,68.10
2022-08-12T01:21:28.948Z,68.70
2022-08-12T01:24:22.988Z,69.60
2022-08-12T01:26:58.798Z,68.80
2022-08-12T01:29:32.483Z,68.20
2022-08-12T01:32:05.040Z,69.00
2022-08-12T01:34:37.425Z,69.30
2022-08-12T01:37:26.762Z,69.50
2022-08-12T01:40:33.739Z,69.90
2022-08-12T01:42:49.535Z,69.50
2022-08-12T01:45:18.031Z,70.40
2022-08-12T01:48:00.853Z,69.60
2022-08-12T01:50:44.268Z,70.30
2022-08-12T01:53:15.874Z,70.00
2022-08-12T01:55:46.298Z,70.90
2022-08-12T01:58:25.931Z,70.60
2022-08-12T02:01:04.400Z,71.00
2022-08-12T02:04:07.459Z,70.70
2022-08-12T02:06:58.804Z,71.30
2022-08-12T02:10:50.822Z,71.20
2022-08-12T02:13:09.822Z,70.70
2022-08-12T02:16:11.370Z,71.80
2022-08-12T02:18:48.922Z,71.20
2022-08-12T02:21:24.671Z,71.80
2022-08-12T02:23:51.760Z,71.70
2022-08-12T02:26:20.080Z,72.00
2022-08-12T02:28:47.278Z,71.90
2022-08-12T02:31:14.928Z,71.60
2022-08-12T02:33:42.947Z,71.60
2022-08-12T02:36:09.621Z,71.90
2022-08-12T02:38:36.507Z,72.60
2022-08-12T02:41:04.997Z,72.80
2022-08-12T02:43:44.301Z,72.90
2022-08-12T02:46:15.038Z,73.30
2022-08-12T02:48:51.843Z,72.80
2022-08-12T02:51:23.491Z,73.90
2022-08-12T02:54:04.697Z,73.20
2022-08-12T02:56:42.224Z,73.50
2022-08-12T02:59:20.112Z,73.20
2022-08-12T03:01:54.883Z,73.10
2022-08-12T03:04:30.245Z,73.80
2022-08-12T03:07:13.389Z,73.40
2022-08-12T03:10:03.888Z,73.20
2022-08-12T03:12:43.667Z,73.40
2022-08-12T03:15:22.211Z,74.10
2022-08-12T03:18:24.049Z,74.70
2022-08-12T03:20:42.173Z,75.00
2022-08-12T03:23:17.479Z,74.90
2022-08-12T03:25:59.223Z,74.10
2022-08-12T03:28:46.906Z,74.80
2022-08-12T03:31:13.763Z,74.70
2022-08-12T03:33:43.708Z,75.00
2022-08-12T03:36:20.595Z,75.00
2022-08-12T03:39:12.475Z,73.90
2022-08-12T03:41:58.145Z,74.40
2022-08-12T03:44:56.575Z,75.40
2022-08-12T03:47:51.878Z,75.20
2022-08-12T03:50:38.197Z,75.10
2022-08-12T03:53:26.544Z,75.20
2022-08-12T03:56:11.957Z,74.50
2022-08-12T03:58:57.732Z,74.80
2022-08-12T04:01:26.888Z,75.00
2022-08-12T04:03:54.768Z,74.00
2022-08-12T04:06:35.048Z,74.80
2022-08-12T04:09:14.999Z,73.60
2022-08-12T04:12:03.804Z,73.50
2022-08-12T04:14:31.673Z,73.00
2022-08-12T04:16:58.493Z,73.50
2022-08-12T04:19:26.126Z,74.10
2022-08-12T04:22:01.043Z,74.30
2022-08-12T04:24:36.710Z,73.80
2022-08-12T04:27:08.577Z,75.00
2022-08-12T04:30:17.722Z,74.10
2022-08-12T04:32:26.627Z,74.20
2022-08-12T04:34:54.165Z,74.60
2022-08-12T04:37:21.107Z,74.60
2022-08-12T04:39:48.796Z,73.80
2022-08-12T04:42:15.993Z,73.90
2022-08-12T04:44:44.321Z,74.40
2022-08-12T04:47:16.389Z,75.70
2022-08-12T04:49:45.808Z,75.30
2022-08-12T04:52:12.751Z,75.20
2022-08-12T04:54:39.382Z,75.30
2022-08-12T04:57:09.334Z,74.80
2022-08-12T04:59:47.921Z,75.80
2022-08-12T05:02:21.500Z,77.30
2022-08-12T05:04:51.448Z,75.80
2022-08-12T05:07:18.237Z,77.00
2022-08-12T05:10:00.925Z,77.50
2022-08-12T05:12:38.167Z,78.30
2022-08-12T05:15:27.567Z,77.30
2022-08-12T05:17:52.910Z,77.80
2022-08-12T05:20:22.932Z,77.50
2022-08-12T05:22:49.880Z,78.10
2022-08-12T05:25:20.133Z,78.00
2022-08-12T05:27:58.845Z,77.30
2022-08-12T05:30:30.785Z,77.50
2022-08-12T05:33:00.272Z,78.40
2022-08-12T05:35:27.708Z,78.00
2022-08-12T05:38:13.026Z,78.00
2022-08-12T05:40:39.796Z,77.90
2022-08-12T05:43:06.476Z,78.20
2022-08-12T05:45:33.046Z,77.90
2022-08-12T05:47:59.877Z,76.50
2022-08-12T05:50:26.473Z,76.50
2022-08-12T05:52:53.926Z,77.00
2022-08-12T05:55:20.800Z,74.60
2022-08-12T05:57:55.114Z,75.40
2022-08-12T06:00:25.441Z,73.60
2022-08-12T06:03:02.617Z,73.20
2022-08-12T06:05:43.166Z,74.10
2022-08-12T06:08:22.799Z,72.90
2022-08-12T06:10:51.902Z,76.70
2022-08-12T06:13:28.699Z,75.20
2022-08-12T06:16:07.135Z,75.00
2022-08-12T06:18:34.258Z,75.50
2022-08-12T06:21:01.855Z,72.40
2022-08-12T06:23:29.851Z,72.50
2022-08-12T06:25:57.761Z,72.80
2022-08-12T06:28:26.179Z,73.10
2022-08-12T06:31:22.207Z,72.80
2022-08-12T06:33:59.447Z,73.70
2022-08-12T06:36:33.598Z,73.30
2022-08-12T06:39:00.903Z,73.00
2022-08-12T06:42:05.096Z,72.90
2022-08-12T06:44:32.873Z,73.20
2022-08-12T06:46:59.769Z,73.50
2022-08-12T06:49:28.155Z,73.40
2022-08-12T06:51:56.360Z,73.30
2022-08-12T06:54:30.753Z,73.60
2022-08-12T06:58:08.043Z,73.60
2022-08-12T06:59:44.788Z,73.60
2022-08-12T07:02:12.272Z,72.30
2022-08-12T07:04:39.387Z,72.00
2022-08-12T07:07:08.468Z,71.00
2022-08-12T07:10:04.129Z,70.90
2022-08-12T07:12:22.235Z,70.30
2022-08-12T07:14:51.221Z,69.70
2022-08-12T07:17:17.922Z,70.20
2022-08-12T07:19:46.560Z,69.30
2022-08-12T07:22:13.756Z,68.20
2022-08-12T07:24:40.407Z,68.40
2022-08-12T07:27:07.069Z,67.90
2022-08-12T07:30:04.321Z,65.70
2022-08-12T07:32:24.294Z,66.00
2022-08-12T07:34:50.867Z,66.30
2022-08-12T07:37:17.836Z,64.80
2022-08-12T07:39:51.063Z,65.30
2022-08-12T07:42:26.875Z,63.60
2022-08-12T07:44:53.463Z,63.50
2022-08-12T07:47:20.065Z,62.40
2022-08-12T07:50:03.754Z,63.20
2022-08-12T07:52:33.295Z,62.10
2022-08-12T07:55:00.347Z,61.30
2022-08-12T07:57:26.938Z,60.50
2022-08-12T07:59:55.520Z,60.60
2022-08-12T08:02:26.883Z,59.90
2022-08-12T08:04:57.171Z,59.60
2022-08-12T08:07:29.496Z,59.10
2022-08-12T08:09:59.163Z,57.20
2022-08-12T08:12:45.655Z,59.20
2022-08-12T08:15:12.358Z,56.60
2022-08-12T08:17:39.077Z,56.30
2022-08-12T08:20:08.717Z,56.50
2022-08-12T08:22:41.984Z,58.20
2022-08-12T08:25:34.553Z,58.90
2022-08-12T08:28:11.475Z,57.00
2022-08-12T08:30:42.334Z,58.90
2022-08-12T08:33:24.433Z,55.30
2022-08-12T08:35:56.675Z,55.20
2022-08-12T08:38:33.253Z,54.90
2022-08-12T08:42:17.226Z,53.40
2022-08-12T08:44:11.131Z,53.00
2022-08-12T08:46:42.354Z,54.90
2022-08-12T08:49:08.998Z,53.00
2022-08-12T08:51:36.394Z,52.70
2022-08-12T08:54:03.476Z,52.20
2022-08-12T08:56:30.410Z,54.10
2022-08-12T08:58:57.516Z,52.30
2022-08-12T09:01:24.953Z,51.60
2022-08-12T09:05:12.323Z,50.80
2022-08-12T09:06:41.983Z,49.80
2022-08-12T09:09:20.627Z,51.90
2022-08-12T09:12:10.998Z,52.30
2022-08-12T09:14:43.493Z,48.70
2022-08-12T09:17:14.201Z,51.30
2022-08-12T09:19:55.217Z,52.20
2022-08-12T09:22:28.740Z,52.60
2022-08-12T09:25:10.911Z,48.80
2022-08-12T09:30:47.478Z,48.60
2022-08-12T09:34:24.742Z,48.20
2022-08-12T09:36:04.965Z,46.60
2022-08-12T09:38:35.212Z,47.50
2022-08-12T09:42:34.217Z,44.10
2022-08-12T09:44:41.058Z,46.20
2022-08-12T09:46:56.130Z,45.80
2022-08-12T09:49:24.551Z,46.10
2022-08-12T09:51:54.886Z,46.60
2022-08-12T09:54:34.086Z,47.90
2022-08-12T09:58:45.433Z,48.80
2022-08-12T10:00:15.232Z,46.10
2022-08-12T10:03:00.782Z,42.60
2022-08-12T10:06:26.848Z,42.60
2022-08-12T10:08:17.486Z,39.80
2022-08-12T10:11:07.586Z,41.20
2022-08-12T10:13:43.476Z,40.20
2022-08-12T10:16:22.046Z,41.00
2022-08-12T10:18:53.608Z,42.50
2022-08-12T10:21:23.877Z,42.40
2022-08-12T10:24:03.929Z,40.90
2022-08-12T10:26:50.956Z,40.80
2022-08-12T10:30:03.196Z,42.30
2022-08-12T10:32:44.574Z,39.80
2022-08-12T10:35:10.559Z,39.90
2022-08-12T10:38:35.613Z,42.80
2022-08-12T10:40:31.638Z,43.10
2022-08-12T10:43:18.425Z,40.90
2022-08-12T10:45:47.045Z,42.90
2022-08-12T10:48:21.577Z,42.90
2022-08-12T10:51:01.718Z,40.90
2022-08-12T10:53:45.086Z,41.40
2022-08-12T10:56:15.318Z,40.00
2022-08-12T10:58:46.341Z,40.40
2022-08-12T11:01:50.567Z,42.10
2022-08-12T11:04:23.367Z,44.30
2022-08-12T11:07:06.647Z,43.00
2022-08-12T11:09:59.893Z,43.20
2022-08-12T11:12:55.254Z,43.00
2022-08-12T11:15:20.778Z,43.40
2022-08-12T11:17:53.202Z,45.10
2022-08-12T11:20:24.341Z,43.10
2022-08-12T11:23:03.570Z,44.30
2022-08-12T11:25:56.571Z,42.40
2022-08-12T11:28:33.523Z,42.80
2022-08-12T11:31:01.897Z,43.20
2022-08-12T11:34:05.858Z,40.80
2022-08-12T11:36:16.197Z,43.30
2022-08-12T11:38:42.919Z,40.10
2022-08-12T11:41:20.680Z,38.70
2022-08-12T11:43:58.603Z,37.90
2022-08-12T11:46:25.719Z,40.10
2022-08-12T11:48:52.860Z,42.40
2022-08-12T11:51:20.736Z,38.30
2022-08-12T11:53:59.440Z,38.60
2022-08-12T11:56:38.064Z,39.00
2022-08-12T12:02:02.602Z,36.60
2022-08-12T12:04:31.288Z,40.10
2022-08-12T12:07:07.141Z,38.50
2022-08-12T12:09:52.899Z,39.40
2022-08-12T12:12:22.450Z,37.30
2022-08-12T12:14:54.888Z,37.50
2022-08-12T12:17:23.260Z,38.30
2022-08-12T12:19:49.863Z,37.90
2022-08-12T12:22:23.093Z,37.40
2022-08-12T12:24:53.982Z,36.40
2022-08-12T12:27:39.282Z,37.40
2022-08-12T12:30:18.484Z,35.90
2022-08-12T12:32:54.811Z,35.40
2022-08-12T12:36:06.325Z,38.80
2022-08-12T12:38:12.907Z,36.20
2022-08-12T12:40:45.509Z,39.60
2022-08-12T12:43:13.438Z,38.80
2022-08-12T12:45:44.518Z,36.90
2022-08-12T12:48:19.797Z,36.10
2022-08-12T12:51:12.063Z,35.20
2022-08-12T12:54:07.452Z,35.20
2022-08-12T12:56:31.575Z,33.90
2022-08-12T12:59:03.312Z,34.80
2022-08-12T13:01:33.007Z,34.40
2022-08-12T13:04:02.969Z,35.10
2022-08-12T13:06:31.516Z,34.20
2022-08-12T13:09:03.295Z,34.50
2022-08-12T13:11:41.548Z,32.50
2022-08-12T13:14:28.161Z,32.70
2022-08-12T13:17:00.904Z,36.60
2022-08-12T13:19:37.651Z,34.80
2022-08-12T13:22:20.110Z,31.40
2022-08-12T13:24:51.849Z,33.70
2022-08-12T13:27:20.655Z,31.60
2022-08-12T13:29:47.447Z,31.30
2022-08-12T13:32:31.128Z,32.80
2022-08-12T13:35:03.919Z,34.40
2022-08-12T13:37:44.070Z,33.90
2022-08-12T13:40:18.109Z,33.80
2022-08-12T13:42:48.640Z,32.00
2022-08-12T13:45:17.821Z,34.50
2022-08-12T13:47:55.391Z,32.50
2022-08-12T13:50:26.719Z,33.20
2022-08-12T13:52:53.471Z,34.50
2022-08-12T13:55:25.357Z,32.00
2022-08-12T13:58:03.680Z,32.70
2022-08-12T14:00:38.587Z,31.80
2022-08-12T14:03:06.284Z,34.70
2022-08-12T14:05:38.841Z,32.70
2022-08-12T14:08:07.732Z,31.70
2022-08-12T14:10:50.854Z,30.40
2022-08-12T14:14:05.472Z,33.40
2022-08-12T14:16:14.397Z,32.00
2022-08-12T14:18:43.638Z,32.90
2022-08-12T14:21:18.392Z,29.30
2022-08-12T14:24:04.050Z,34.50
2022-08-12T14:26:32.916Z,31.00
2022-08-12T14:29:01.835Z,34.10
2022-08-12T14:31:31.947Z,33.90
2022-08-12T14:33:59.770Z,31.40
2022-08-12T14:36:26.672Z,32.50
2022-08-12T14:38:55.012Z,31.60
2022-08-12T14:41:25.296Z,32.50
2022-08-12T14:44:13.002Z,34.60
2022-08-12T14:46:55.661Z,34.90
2022-08-12T14:50:01.014Z,32.00
2022-08-12T14:52:58.873Z,31.40
2022-08-12T14:57:58.054Z,31.50
2022-08-12T15:00:50.758Z,31.60
2022-08-12T15:03:17.748Z,32.40
2022-08-12T15:06:06.341Z,34.50
2022-08-12T15:08:39.420Z,32.70
2022-08-12T15:11:09.945Z,34.80
2022-08-12T15:13:39.632Z,35.90
2022-08-12T15:16:07.121Z,35.00
2022-08-12T15:18:36.437Z,33.60
2022-08-12T15:21:07.890Z,33.40
2022-08-12T15:23:45.682Z,33.50
2022-08-12T15:26:27.406Z,33.40
2022-08-12T15:28:56.480Z,34.40
2022-08-12T15:31:28.177Z,34.00
2022-08-12T15:34:11.017Z,33.30
2022-08-12T15:36:55.188Z,34.70
2022-08-12T15:39:22.487Z,34.50
2022-08-12T15:41:50.910Z,33.90
2022-08-12T15:44:38.040Z,35.00
2022-08-12T15:47:09.437Z,34.30
2022-08-12T15:49:54.385Z,33.40
2022-08-12T15:52:28.813Z,33.30
2022-08-12T15:54:58.804Z,33.30
2022-08-12T15:57:26.658Z,33.60
2022-08-12T16:00:06.738Z,33.20
2022-08-12T16:02:49.461Z,34.70
2022-08-12T16:06:12.888Z,32.70
2022-08-12T16:08:18.495Z,33.30
2022-08-12T16:10:50.662Z,34.80
2022-08-12T16:13:18.241Z,34.50
2022-08-12T16:16:03.453Z,36.10
2022-08-12T16:18:33.285Z,33.50
2022-08-12T16:21:00.548Z,32.70
2022-08-12T16:23:51.315Z,33.40
2022-08-12T16:26:15.137Z,33.70
2022-08-12T16:28:47.927Z,33.50
2022-08-12T16:31:23.316Z,32.90
2022-08-12T16:33:59.894Z,33.90
2022-08-12T16:36:28.418Z,34.00
2022-08-12T16:38:55.084Z,35.00
2022-08-12T16:41:22.609Z,34.50
2022-08-12T16:43:50.381Z,35.20
2022-08-12T16:46:31.422Z,34.50
2022-08-12T16:49:09.027Z,34.30
2022-08-12T16:51:45.811Z,34.30
2022-08-12T16:54:16.541Z,35.50
2022-08-12T16:56:50.661Z,36.20
2022-08-12T16:59:22.415Z,36.80
2022-08-12T17:01:49.601Z,34.60
2022-08-12T17:04:17.836Z,36.70
2022-08-12T17:06:47.692Z,37.30
2022-08-12T17:09:17.044Z,36.60
2022-08-12T17:11:44.165Z,36.00
2022-08-12T17:14:10.747Z,35.70
2022-08-12T17:16:40.188Z,37.40
2022-08-12T17:19:09.240Z,36.30
2022-08-12T17:21:40.258Z,36.90
2022-08-12T17:24:15.116Z,36.40
2022-08-12T17:26:44.982Z,35.70
2022-08-12T17:29:19.400Z,36.10
2022-08-12T17:32:02.875Z,36.90
2022-08-12T17:34:50.323Z,35.90
2022-08-12T17:37:17.139Z,36.50
2022-08-12T17:40:14.937Z,36.90
2022-08-12T17:42:34.434Z,37.60
2022-08-12T17:45:18.471Z,37.90
2022-08-12T17:48:01.335Z,38.00
2022-08-12T17:50:34.604Z,37.20
2022-08-12T17:53:03.013Z,36.60
2022-08-12T17:55:40.835Z,38.40
2022-08-12T17:58:13.056Z,38.20
2022-08-12T18:00:44.030Z,38.80
2022-08-12T18:03:14.241Z,39.30
2022-08-12T18:06:06.099Z,40.30
2022-08-12T18:08:39.536Z,41.50
2022-08-12T18:12:03.841Z,41.90
2022-08-12T18:14:15.770Z,42.20
2022-08-12T18:16:55.252Z,43.40
2022-08-12T18:19:22.008Z,44.40
2022-08-12T18:22:02.443Z,43.80
2022-08-12T18:24:30.238Z,45.10
2022-08-12T18:26:57.428Z,45.10
2022-08-12T18:29:42.350Z,44.50
2022-08-12T18:32:42.210Z,45.00
2022-08-12T18:35:10.808Z,45.30
2022-08-12T18:37:41.729Z,46.70
2022-08-12T18:40:28.219Z,47.00
2022-08-12T18:42:59.251Z,47.70
2022-08-12T18:45:46.566Z,48.70
2022-08-12T18:48:16.468Z,49.60
2022-08-12T18:50:49.054Z,49.90
2022-08-12T18:54:04.884Z,51.10
2022-08-12T18:56:06.529Z,50.90
2022-08-12T18:58:59.601Z,51.40
2022-08-12T19:02:22.225Z,51.80
2022-08-12T19:04:15.816Z,52.10
2022-08-12T19:06:46.396Z,52.50
2022-08-12T19:09:15.056Z,52.20
2022-08-12T19:12:01.405Z,52.70
2022-08-12T19:14:28.470Z,52.80
2022-08-12T19:17:01.819Z,53.20
2022-08-12T19:19:37.248Z,53.50
2022-08-12T19:22:08.332Z,53.80
2022-08-12T19:24:53.636Z,53.70
2022-08-12T19:27:21.375Z,54.10
2022-08-12T19:30:06.287Z,54.50
2022-08-12T19:32:35.300Z,53.00
2022-08-12T19:36:07.006Z,52.40
2022-08-12T19:38:04.005Z,52.30
2022-08-12T19:40:34.893Z,52.90
2022-08-12T19:43:19.003Z,51.40
2022-08-12T19:45:54.130Z,53.20
2022-08-12T19:48:24.426Z,51.90
2022-08-12T19:50:56.539Z,51.90
2022-08-12T19:53:24.873Z,54.70
2022-08-12T19:55:55.852Z,54.70
2022-08-12T19:58:23.545Z,53.00
2022-08-12T20:00:53.196Z,53.00
2022-08-12T20:03:39.246Z,53.40
2022-08-12T20:06:15.595Z,54.00
2022-08-12T20:08:48.905Z,54.10
2022-08-12T20:12:12.226Z,54.20
2022-08-12T20:14:09.426Z,53.40
2022-08-12T20:16:57.655Z,54.30
2022-08-12T20:19:52.500Z,55.00
2022-08-12T20:22:23.948Z,53.80
2022-08-12T20:24:58.336Z,53.20
2022-08-12T20:28:03.106Z,53.90
2022-08-12T20:30:15.820Z,54.20
2022-08-12T20:32:56.984Z,53.50
2022-08-12T20:35:39.036Z,54.00
2022-08-12T20:38:26.443Z,54.50
2022-08-12T20:40:54.985Z,55.20
2022-08-12T20:43:23.986Z,53.80
2022-08-12T20:45:57.696Z,54.20
2022-08-12T20:48:25.488Z,54.40
2022-08-12T20:50:55.532Z,54.70
2022-08-12T20:53:27.756Z,54.20
2022-08-12T20:56:22.061Z,54.70
2022-08-12T20:58:57.724Z,55.60
2022-08-12T21:01:36.691Z,55.90
2022-08-12T21:04:30.536Z,54.80
2022-08-12T21:06:57.779Z,55.60
2022-08-12T21:09:33.724Z,55.90
2022-08-12T21:12:27.928Z,56.20
2022-08-12T21:15:17.066Z,56.20
2022-08-12T21:18:00.584Z,56.10
2022-08-12T21:20:34.376Z,55.80
2022-08-12T21:23:04.182Z,55.30
2022-08-12T21:25:44.077Z,55.50
2022-08-12T21:28:12.978Z,56.40
2022-08-12T21:31:11.721Z,56.40
2022-08-12T21:33:58.326Z,55.90
2022-08-12T21:36:22.770Z,56.10
2022-08-12T21:39:20.421Z,57.50
2022-08-12T21:41:53.451Z,58.00
2022-08-12T21:44:32.483Z,56.80
2022-08-12T21:47:19.832Z,56.60
2022-08-12T21:49:55.443Z,56.10
2022-08-12T21:52:28.393Z,56.80
2022-08-12T21:55:02.062Z,57.00
2022-08-12T21:57:36.202Z,57.30
2022-08-12T22:00:17.273Z,58.10
2022-08-12T22:03:02.646Z,57.80
2022-08-12T22:05:48.033Z,58.70
2022-08-12T22:08:16.962Z,57.20
2022-08-12T22:10:51.063Z,58.30
2022-08-12T22:14:04.101Z,57.60
2022-08-12T22:16:06.467Z,57.40
2022-08-12T22:18:33.037Z,58.40
2022-08-12T22:20:59.600Z,57.20
2022-08-12T22:23:28.420Z,58.10
2022-08-12T22:26:16.079Z,58.30
2022-08-12T22:29:20.268Z,58.10
2022-08-12T22:31:48.085Z,58.90
2022-08-12T22:34:18.247Z,58.60
2022-08-12T22:36:45.501Z,57.70
2022-08-12T22:39:15.854Z,59.40
2022-08-12T22:42:02.113Z,59.40
2022-08-12T22:44:52.954Z,56.90
2022-08-12T22:47:53.207Z,58.10
2022-08-12T22:50:28.694Z,58.80
2022-08-12T22:53:15.064Z,58.00
2022-08-12T22:55:59.753Z,60.20
2022-08-12T22:58:33.515Z,58.90
2022-08-12T23:01:02.227Z,58.80
2022-08-12T23:03:47.755Z,58.80
2022-08-12T23:06:23.051Z,59.10
2022-08-12T23:08:51.242Z,58.60
2022-08-12T23:11:24.004Z,59.00
2022-08-12T23:13:56.571Z,59.30
2022-08-12T23:16:31.152Z,59.50
2022-08-12T23:19:09.965Z,58.70
2022-08-12T23:22:06.569Z,58.90
2022-08-12T23:24:36.762Z,58.80
2022-08-12T23:27:23.598Z,59.20
2022-08-12T23:30:17.835Z,59.20
2022-08-12T23:32:38.157Z,58.50
2022-08-12T23:35:07.054Z,60.20
2022-08-12T23:37:46.707Z,60.90
2022-08-12T23:40:21.987Z,61.00
2022-08-12T23:42:49.373Z,60.20
2022-08-12T23:45:20.519Z,61.30
2022-08-12T23:47:59.716Z,61.20
2022-08-12T23:50:33.546Z,60.50
2022-08-12T23:53:06.431Z,62.30
2022-08-12T23:55:42.130Z,61.30
2022-08-12T23:58:22.388Z,62.10
